createdAt,value
2019-01-02T00:00:13.259Z,0
2019-01-02T00:01:22.938Z,0
2019-01-02T00:02:32.902Z,0
2019-01-02T00:03:42.869Z,0
2019-01-02T00:04:53.597Z,0
2019-01-02T00:06:03.927Z,0
2019-01-02T00:07:13.892Z,0
2019-01-02T00:08:23.681Z,0
2019-01-02T00:09:34.525Z,0
2019-01-02T00:10:44.778Z,0
2019-01-02T00:11:54.503Z,0
2019-01-02T00:13:05.690Z,0
2019-01-02T00:14:15.986Z,0
2019-01-02T00:15:26.168Z,0
2019-01-02T00:16:36.138Z,0
2019-01-02T00:17:47.423Z,0
2019-01-02T00:18:57.735Z,0
2019-01-02T00:20:07.463Z,0
2019-01-02T00:21:17.699Z,0
2019-01-02T00:22:29.043Z,0
2019-01-02T00:23:39.321Z,0
2019-01-02T00:24:49.305Z,0
2019-01-02T00:25:59.591Z,0
2019-01-02T00:27:10.520Z,0
2019-01-02T00:28:20.320Z,0
2019-01-02T00:29:30.305Z,0
2019-01-02T00:30:41.111Z,0
2019-01-02T00:31:51.694Z,0
2019-01-02T00:33:02.032Z,0
2019-01-02T00:34:12.077Z,0
2019-01-02T00:35:23.281Z,0
2019-01-02T00:36:33.583Z,0
2019-01-02T00:37:43.552Z,0
2019-01-02T00:38:54.428Z,0
2019-01-02T00:40:05.199Z,0
2019-01-02T00:41:15.499Z,0
2019-01-02T00:42:25.467Z,0
2019-01-02T00:43:36.471Z,0
2019-01-02T00:44:46.708Z,0
2019-01-02T00:45:56.452Z,0
2019-01-02T00:47:05.934Z,0
2019-01-02T00:48:16.876Z,0
2019-01-02T00:49:27.154Z,0
2019-01-02T00:50:36.894Z,0
2019-01-02T00:51:48.097Z,0
2019-01-02T00:52:58.459Z,0
2019-01-02T00:54:08.475Z,0
2019-01-02T00:55:19.022Z,0
2019-01-02T00:56:29.644Z,0
2019-01-02T00:57:39.846Z,0
2019-01-02T00:58:49.579Z,0
2019-01-02T01:00:00.513Z,0
2019-01-02T01:01:10.811Z,0
2019-01-02T01:02:20.764Z,0
2019-01-02T01:03:31.854Z,0
2019-01-02T01:04:42.218Z,0
2019-01-02T01:05:51.426Z,0
2019-01-02T01:07:02.562Z,0
2019-01-02T01:08:12.874Z,0
2019-01-02T01:09:23.003Z,0
2019-01-02T01:10:32.743Z,0
2019-01-02T01:11:44.020Z,0
2019-01-02T01:12:54.434Z,0
2019-01-02T01:14:04.404Z,0
2019-01-02T01:15:15.149Z,0
2019-01-02T01:16:25.714Z,0
2019-01-02T01:17:35.666Z,0
2019-01-02T01:18:45.620Z,0
2019-01-02T01:19:56.745Z,0
2019-01-02T01:21:06.852Z,0
2019-01-02T01:22:16.578Z,0
2019-01-02T01:23:26.947Z,0
2019-01-02T01:24:37.469Z,0
2019-01-02T01:25:47.252Z,0
2019-01-02T01:26:57.208Z,0
2019-01-02T01:28:07.182Z,0
2019-01-02T01:29:18.486Z,0
2019-01-02T01:30:28.936Z,0
2019-01-02T01:31:38.909Z,0
2019-01-02T01:32:48.920Z,0
2019-01-02T01:33:59.756Z,0
2019-01-02T01:35:09.548Z,0
2019-01-02T01:36:19.604Z,0
2019-01-02T01:37:29.578Z,0
2019-01-02T01:38:39.616Z,0
2019-01-02T01:39:50.689Z,0
2019-01-02T01:41:01.035Z,0
2019-01-02T01:42:11.000Z,0
2019-01-02T01:43:21.516Z,0
2019-01-02T01:44:32.728Z,0
2019-01-02T01:45:42.719Z,0
2019-01-02T01:46:52.714Z,0
2019-01-02T01:48:02.432Z,0
2019-01-02T01:49:13.760Z,0
2019-01-02T01:50:23.846Z,0
2019-01-02T01:51:33.304Z,0
2019-01-02T01:52:43.259Z,0
2019-01-02T01:53:54.278Z,0
2019-01-02T01:55:04.595Z,0
2019-01-02T01:56:14.322Z,0
2019-01-02T01:57:24.294Z,0
2019-01-02T01:58:35.592Z,0
2019-01-02T01:59:46.230Z,0
2019-01-02T02:00:56.310Z,0
2019-01-02T02:02:06.029Z,0
2019-01-02T02:03:16.720Z,0
2019-01-02T02:04:27.286Z,0
2019-01-02T02:05:37.492Z,0
2019-01-02T02:06:47.454Z,0
2019-01-02T02:07:58.130Z,0
2019-01-02T02:09:08.868Z,0
2019-01-02T02:10:18.986Z,0
2019-01-02T02:11:28.720Z,0
2019-01-02T02:12:38.679Z,0
2019-01-02T02:13:49.644Z,0
2019-01-02T02:14:59.772Z,0
2019-01-02T02:16:09.488Z,0
2019-01-02T02:17:19.460Z,0
2019-01-02T02:18:30.616Z,0
2019-01-02T02:19:40.931Z,0
2019-01-02T02:20:50.898Z,0
2019-01-02T02:22:00.606Z,0
2019-01-02T02:23:11.696Z,0
2019-01-02T02:24:21.516Z,0
2019-01-02T02:25:31.474Z,0
2019-01-02T02:26:41.208Z,0
2019-01-02T02:27:52.311Z,0
2019-01-02T02:29:02.580Z,0
2019-01-02T02:30:12.671Z,0
2019-01-02T02:31:23.710Z,0
2019-01-02T02:32:34.021Z,0
2019-01-02T02:33:44.844Z,0
2019-01-02T02:34:54.750Z,0
2019-01-02T02:36:05.078Z,0
2019-01-02T02:37:15.410Z,0
2019-01-02T02:38:26.778Z,0
2019-01-02T02:39:38.203Z,0
2019-01-02T02:40:48.238Z,0
2019-01-02T02:41:59.105Z,0
2019-01-02T02:43:09.698Z,0
2019-01-02T02:44:20.956Z,0
2019-01-02T02:45:32.732Z,0
2019-01-02T02:46:43.054Z,0
2019-01-02T02:47:54.294Z,0
2019-01-02T02:49:05.763Z,0
2019-01-02T02:50:16.080Z,0
2019-01-02T02:51:27.269Z,0
2019-01-02T02:52:37.292Z,0
2019-01-02T02:53:47.997Z,0
2019-01-02T02:54:58.287Z,0
2019-01-02T02:56:09.083Z,0
2019-01-02T02:57:19.323Z,0
2019-01-02T02:58:29.642Z,0
2019-01-02T02:59:40.988Z,0
2019-01-02T03:00:52.401Z,0
2019-01-02T03:02:04.094Z,0
2019-01-02T03:03:14.027Z,0
2019-01-02T03:04:24.915Z,0
2019-01-02T03:05:35.103Z,0
2019-01-02T03:06:48.215Z,0
2019-01-02T03:08:00.304Z,0
2019-01-02T03:09:10.672Z,0
2019-01-02T03:10:21.733Z,0
2019-01-02T03:11:32.711Z,0
2019-01-02T03:12:42.717Z,0
2019-01-02T03:13:53.903Z,0
2019-01-02T03:15:03.929Z,0
2019-01-02T03:16:14.844Z,0
2019-01-02T03:17:26.028Z,0
2019-01-02T03:18:37.247Z,0
2019-01-02T03:19:48.135Z,0
2019-01-02T03:20:58.439Z,0
2019-01-02T03:22:09.358Z,0
2019-01-02T03:23:20.803Z,0
2019-01-02T03:24:31.215Z,0
2019-01-02T03:25:42.379Z,0
2019-01-02T03:26:52.597Z,0
2019-01-02T03:28:03.809Z,0
2019-01-02T03:29:14.813Z,0
2019-01-02T03:30:26.427Z,0
2019-01-02T03:31:38.021Z,0
2019-01-02T03:32:49.608Z,0
2019-01-02T03:33:59.955Z,0
2019-01-02T03:35:09.883Z,0
2019-01-02T03:36:19.804Z,0
2019-01-02T03:37:29.481Z,0
2019-01-02T03:38:39.413Z,0
2019-01-02T03:39:49.099Z,0
2019-01-02T03:40:58.806Z,0
2019-01-02T03:42:08.766Z,0
2019-01-02T03:43:18.457Z,0
2019-01-02T03:44:28.407Z,0
2019-01-02T03:45:38.370Z,0
2019-01-02T03:46:48.053Z,0
2019-01-02T03:47:57.989Z,0
2019-01-02T03:49:07.424Z,0
2019-01-02T03:50:16.872Z,0
2019-01-02T03:51:26.553Z,0
2019-01-02T03:52:35.966Z,0
2019-01-02T03:53:45.637Z,0
2019-01-02T03:54:54.829Z,0
2019-01-02T03:56:04.783Z,0
2019-01-02T03:57:14.245Z,0
2019-01-02T03:58:23.685Z,0
2019-01-02T03:59:33.266Z,0
2019-01-02T04:00:43.218Z,0
2019-01-02T04:01:52.897Z,0
2019-01-02T04:03:02.603Z,0
2019-01-02T04:04:12.530Z,0
2019-01-02T04:05:22.211Z,0
2019-01-02T04:06:31.899Z,0
2019-01-02T04:07:41.835Z,0
2019-01-02T04:08:51.757Z,0
2019-01-02T04:10:01.181Z,0
2019-01-02T04:11:10.882Z,0
2019-01-02T04:12:20.566Z,0
2019-01-02T04:13:30.523Z,0
2019-01-02T04:14:40.480Z,0
2019-01-02T04:15:50.411Z,0
2019-01-02T04:17:00.107Z,0
2019-01-02T04:18:10.053Z,0
2019-01-02T04:19:19.744Z,0
2019-01-02T04:20:29.689Z,0
2019-01-02T04:21:39.646Z,0
2019-01-02T04:22:49.092Z,0
2019-01-02T04:23:58.777Z,0
2019-01-02T04:25:08.461Z,0
2019-01-02T04:26:18.158Z,0
2019-01-02T04:27:28.088Z,0
2019-01-02T04:28:37.777Z,0
2019-01-02T04:29:47.480Z,0
2019-01-02T04:30:57.409Z,0
2019-01-02T04:32:07.113Z,0
2019-01-02T04:33:16.542Z,0
2019-01-02T04:34:26.487Z,0
2019-01-02T04:35:36.412Z,0
2019-01-02T04:36:46.393Z,0
2019-01-02T04:37:56.338Z,0
2019-01-02T04:39:06.274Z,0
2019-01-02T04:40:17.634Z,0
2019-01-02T04:41:26.820Z,0
2019-01-02T04:42:36.750Z,0
2019-01-02T04:43:46.451Z,0
2019-01-02T04:44:56.150Z,0
2019-01-02T04:46:05.823Z,0
2019-01-02T04:47:15.497Z,0
2019-01-02T04:48:25.420Z,0
2019-01-02T04:49:34.858Z,0
2019-01-02T04:50:44.804Z,0
2019-01-02T04:51:54.745Z,0
2019-01-02T04:53:04.432Z,0
2019-01-02T04:54:14.382Z,0
2019-01-02T04:55:24.336Z,0
2019-01-02T04:56:34.277Z,0
2019-01-02T04:57:44.220Z,0
2019-01-02T04:58:54.157Z,0
2019-01-02T05:00:03.852Z,0
2019-01-02T05:01:14.212Z,0
2019-01-02T05:02:24.185Z,0
2019-01-02T05:03:34.128Z,0
2019-01-02T05:04:44.065Z,0
2019-01-02T05:05:53.993Z,0
2019-01-02T05:07:03.673Z,0
2019-01-02T05:08:13.354Z,0
2019-01-02T05:09:23.289Z,0
2019-01-02T05:10:32.981Z,0
2019-01-02T05:11:42.941Z,0
2019-01-02T05:12:52.638Z,0
2019-01-02T05:14:02.578Z,0
2019-01-02T05:15:12.523Z,0
2019-01-02T05:16:22.455Z,0
2019-01-02T05:17:32.385Z,0
2019-01-02T05:18:42.341Z,0
2019-01-02T05:19:52.024Z,0
2019-01-02T05:21:01.999Z,0
2019-01-02T05:22:11.701Z,0
2019-01-02T05:23:21.384Z,0
2019-01-02T05:24:31.325Z,0
2019-01-02T05:25:41.053Z,0
2019-01-02T05:26:50.723Z,0
2019-01-02T05:28:00.706Z,0
2019-01-02T05:29:10.641Z,0
2019-01-02T05:30:20.497Z,0
2019-01-02T05:31:30.193Z,0
2019-01-02T05:32:40.140Z,0
2019-01-02T05:33:49.841Z,0
2019-01-02T05:34:59.785Z,0
2019-01-02T05:36:09.453Z,0
2019-01-02T05:37:19.403Z,0
2019-01-02T05:38:29.352Z,0
2019-01-02T05:39:38.796Z,0
2019-01-02T05:40:48.481Z,0
2019-01-02T05:41:58.408Z,0
2019-01-02T05:43:08.353Z,0
2019-01-02T05:44:18.289Z,0
2019-01-02T05:45:28.225Z,0
2019-01-02T05:46:37.918Z,0
2019-01-02T05:47:47.849Z,0
2019-01-02T05:48:57.546Z,0
2019-01-02T05:50:07.492Z,0
2019-01-02T05:51:17.431Z,0
2019-01-02T05:52:27.119Z,0
2019-01-02T05:53:37.065Z,0
2019-01-02T05:54:47.057Z,0
2019-01-02T05:55:57.019Z,0
2019-01-02T05:57:06.961Z,0
2019-01-02T05:58:16.685Z,0
2019-01-02T05:59:26.390Z,0
2019-01-02T06:00:42.146Z,0
2019-01-02T06:01:51.581Z,0
2019-01-02T06:03:01.271Z,0
2019-01-02T06:04:10.709Z,0
2019-01-02T06:05:20.651Z,0
2019-01-02T06:06:30.611Z,0
2019-01-02T06:07:40.539Z,0
2019-01-02T06:08:50.478Z,0
2019-01-02T06:10:00.415Z,0
2019-01-02T06:11:10.348Z,0
2019-01-02T06:12:19.782Z,0
2019-01-02T06:13:29.727Z,0
2019-01-02T06:14:39.411Z,0
2019-01-02T06:15:49.097Z,0
2019-01-02T06:16:59.029Z,0
2019-01-02T06:18:08.719Z,0
2019-01-02T06:19:18.652Z,0
2019-01-02T06:20:28.351Z,0
2019-01-02T06:21:38.043Z,0
2019-01-02T06:22:47.747Z,0
2019-01-02T06:23:57.691Z,0
2019-01-02T06:25:07.700Z,0
2019-01-02T06:26:17.398Z,0
2019-01-02T06:27:27.331Z,0
2019-01-02T06:28:37.264Z,0
2019-01-02T06:29:47.243Z,0
2019-01-02T06:30:56.934Z,0
2019-01-02T06:32:06.631Z,0
2019-01-02T06:33:16.309Z,0
2019-01-02T06:34:26.270Z,0
2019-01-02T06:35:35.949Z,0
2019-01-02T06:36:45.633Z,0
2019-01-02T06:37:55.577Z,0
2019-01-02T06:39:05.530Z,0
2019-01-02T06:40:15.232Z,0
2019-01-02T06:41:24.919Z,0
2019-01-02T06:42:34.857Z,0
2019-01-02T06:43:44.790Z,0
2019-01-02T06:44:54.470Z,0
2019-01-02T06:46:04.160Z,0
2019-01-02T06:47:14.102Z,0
2019-01-02T06:48:24.053Z,0
2019-01-02T06:49:33.994Z,0
2019-01-02T06:50:43.924Z,0
2019-01-02T06:51:53.354Z,0
2019-01-02T06:53:03.025Z,0
2019-01-02T06:54:12.970Z,0
2019-01-02T06:55:22.916Z,0
2019-01-02T06:56:32.363Z,0
2019-01-02T06:57:42.060Z,0
2019-01-02T06:58:52.617Z,0
2019-01-02T07:00:02.609Z,0
2019-01-02T07:01:12.540Z,0
2019-01-02T07:02:22.226Z,0
2019-01-02T07:03:31.937Z,0
2019-01-02T07:04:41.624Z,0
2019-01-02T07:05:51.315Z,0
2019-01-02T07:07:01.275Z,0
2019-01-02T07:08:11.022Z,5
2019-01-02T07:09:20.972Z,5
2019-01-02T07:10:30.923Z,5
2019-01-02T07:11:40.879Z,5
2019-01-02T07:12:50.829Z,5
2019-01-02T07:14:00.525Z,5
2019-01-02T07:15:10.466Z,5
2019-01-02T07:16:19.919Z,5
2019-01-02T07:17:29.625Z,5
2019-01-02T07:18:39.570Z,10
2019-01-02T07:19:49.276Z,10
2019-01-02T07:20:58.970Z,10
2019-01-02T07:22:08.416Z,10
2019-01-02T07:23:18.377Z,10
2019-01-02T07:24:28.324Z,10
2019-01-02T07:25:37.810Z,10
2019-01-02T07:26:48.317Z,10
2019-01-02T07:27:58.312Z,10
2019-01-02T07:29:08.251Z,10
2019-01-02T07:30:17.938Z,10
2019-01-02T07:31:27.873Z,10
2019-01-02T07:32:37.564Z,10
2019-01-02T07:33:47.251Z,15
2019-01-02T07:34:57.194Z,15
2019-01-02T07:36:07.154Z,15
2019-01-02T07:37:17.096Z,15
2019-01-02T07:38:27.037Z,20
2019-01-02T07:39:36.732Z,20
2019-01-02T07:40:46.418Z,20
2019-01-02T07:41:56.106Z,20
2019-01-02T07:43:06.062Z,20
2019-01-02T07:44:15.754Z,20
2019-01-02T07:45:25.710Z,20
2019-01-02T07:46:35.151Z,20
2019-01-02T07:47:45.107Z,20
2019-01-02T07:48:54.792Z,25
2019-01-02T07:50:04.736Z,25
2019-01-02T07:51:14.431Z,25
2019-01-02T07:52:24.150Z,25
2019-01-02T07:53:34.090Z,30
2019-01-02T07:54:44.036Z,30
2019-01-02T07:55:53.728Z,30
2019-01-02T07:57:03.716Z,30
2019-01-02T07:58:13.403Z,35
2019-01-02T07:59:23.354Z,35
2019-01-02T08:00:33.049Z,35
2019-01-02T08:01:43.006Z,40
2019-01-02T08:02:52.694Z,40
2019-01-02T08:04:02.647Z,40
2019-01-02T08:05:12.586Z,40
2019-01-02T08:06:22.526Z,40
2019-01-02T08:07:32.455Z,45
2019-01-02T08:08:42.144Z,45
2019-01-02T08:09:51.840Z,45
2019-01-02T08:11:01.273Z,45
2019-01-02T08:12:10.969Z,45
2019-01-02T08:13:20.677Z,50
2019-01-02T08:14:30.618Z,50
2019-01-02T08:15:40.558Z,50
2019-01-02T08:16:50.244Z,55
2019-01-02T08:18:00.217Z,50
2019-01-02T08:19:10.173Z,45
2019-01-02T08:20:19.621Z,45
2019-01-02T08:21:29.310Z,50
2019-01-02T08:22:38.993Z,50
2019-01-02T08:23:48.678Z,55
2019-01-02T08:24:58.367Z,55
2019-01-02T08:26:07.813Z,55
2019-01-02T08:27:17.751Z,55
2019-01-02T08:28:27.435Z,60
2019-01-02T08:29:37.381Z,60
2019-01-02T08:30:47.066Z,60
2019-01-02T08:31:56.757Z,60
2019-01-02T08:33:06.207Z,55
2019-01-02T08:34:16.147Z,60
2019-01-02T08:35:26.095Z,65
2019-01-02T08:36:36.049Z,70
2019-01-02T08:37:45.736Z,70
2019-01-02T08:38:55.674Z,70
2019-01-02T08:40:05.109Z,75
2019-01-02T08:41:15.280Z,70
2019-01-02T08:42:25.030Z,65
2019-01-02T08:43:34.718Z,70
2019-01-02T08:44:44.666Z,75
2019-01-02T08:45:54.621Z,80
2019-01-02T08:47:04.312Z,80
2019-01-02T08:48:14.267Z,80
2019-01-02T08:49:24.191Z,80
2019-01-02T08:50:34.138Z,85
2019-01-02T08:51:44.106Z,80
2019-01-02T08:52:53.823Z,70
2019-01-02T08:54:03.497Z,70
2019-01-02T08:55:13.454Z,55
2019-01-02T08:56:23.380Z,40
2019-01-02T08:57:33.325Z,40
2019-01-02T08:58:43.278Z,45
2019-01-02T08:59:52.966Z,40
2019-01-02T09:01:02.903Z,45
2019-01-02T09:02:12.849Z,35
2019-01-02T09:03:22.540Z,25
2019-01-02T09:04:32.504Z,20
2019-01-02T09:05:42.444Z,25
2019-01-02T09:06:52.157Z,30
2019-01-02T09:08:02.110Z,30
2019-01-02T09:09:12.515Z,45
2019-01-02T09:10:22.195Z,60
2019-01-02T09:11:31.885Z,80
2019-01-02T09:12:41.834Z,110
2019-01-02T09:13:51.831Z,95
2019-01-02T09:15:01.516Z,65
2019-01-02T09:16:11.467Z,35
2019-01-02T09:17:21.162Z,35
2019-01-02T09:18:31.098Z,40
2019-01-02T09:19:40.799Z,55
2019-01-02T09:20:50.755Z,70
2019-01-02T09:22:00.454Z,80
2019-01-02T09:23:10.157Z,90
2019-01-02T09:24:20.101Z,105
2019-01-02T09:25:29.795Z,125
2019-01-02T09:26:39.737Z,165
2019-01-02T09:27:49.674Z,195
2019-01-02T09:28:59.366Z,195
2019-01-02T09:30:09.317Z,210
2019-01-02T09:31:19.262Z,200
2019-01-02T09:32:29.190Z,170
2019-01-02T09:33:39.114Z,165
2019-01-02T09:34:49.091Z,190
2019-01-02T09:36:00.495Z,155
2019-01-02T09:37:10.434Z,140
2019-01-02T09:38:20.128Z,135
2019-01-02T09:39:30.088Z,125
2019-01-02T09:40:40.317Z,95
2019-01-02T09:41:50.038Z,70
2019-01-02T09:43:00.087Z,65
2019-01-02T09:44:09.783Z,75
2019-01-02T09:45:19.748Z,85
2019-01-02T09:46:29.997Z,110
2019-01-02T09:47:40.223Z,130
2019-01-02T09:48:50.181Z,140
2019-01-02T09:50:00.208Z,140
2019-01-02T09:51:10.189Z,135
2019-01-02T09:52:19.875Z,125
2019-01-02T09:53:29.556Z,125
2019-01-02T09:54:39.501Z,125
2019-01-02T09:55:49.203Z,130
2019-01-02T09:56:59.140Z,135
2019-01-02T09:58:08.845Z,135
2019-01-02T09:59:18.779Z,150
2019-01-02T10:00:28.719Z,165
2019-01-02T10:01:38.671Z,175
2019-01-02T10:02:48.371Z,175
2019-01-02T10:03:58.322Z,165
2019-01-02T10:05:08.264Z,180
2019-01-02T10:06:17.957Z,195
2019-01-02T10:07:27.914Z,195
2019-01-02T10:08:37.608Z,190
2019-01-02T10:09:47.299Z,185
2019-01-02T10:10:56.988Z,175
2019-01-02T10:12:06.911Z,180
2019-01-02T10:13:16.620Z,185
2019-01-02T10:14:26.340Z,195
2019-01-02T10:15:36.278Z,205
2019-01-02T10:16:46.227Z,220
2019-01-02T10:17:55.908Z,235
2019-01-02T10:19:05.849Z,250
2019-01-02T10:20:15.790Z,255
2019-01-02T10:21:25.737Z,265
2019-01-02T10:22:35.193Z,275
2019-01-02T10:23:45.146Z,280
2019-01-02T10:24:55.071Z,290
2019-01-02T10:26:04.771Z,295
2019-01-02T10:27:14.730Z,300
2019-01-02T10:28:24.666Z,305
2019-01-02T10:29:34.117Z,315
2019-01-02T10:30:44.051Z,320
2019-01-02T10:31:54.235Z,335
2019-01-02T10:33:03.937Z,355
2019-01-02T10:34:13.915Z,375
2019-01-02T10:35:23.619Z,395
2019-01-02T10:36:33.311Z,415
2019-01-02T10:37:43.029Z,440
2019-01-02T10:38:52.469Z,460
2019-01-02T10:40:02.155Z,485
2019-01-02T10:41:12.106Z,550
2019-01-02T10:42:22.045Z,555
2019-01-02T10:43:31.994Z,525
2019-01-02T10:44:41.703Z,530
2019-01-02T10:45:51.648Z,520
2019-01-02T10:47:01.334Z,555
2019-01-02T10:48:11.294Z,530
2019-01-02T10:49:21.229Z,515
2019-01-02T10:50:31.187Z,520
2019-01-02T10:51:41.128Z,540
2019-01-02T10:52:51.665Z,575
2019-01-02T10:54:01.615Z,635
2019-01-02T10:55:11.592Z,560
2019-01-02T10:56:21.529Z,535
2019-01-02T10:57:31.227Z,545
2019-01-02T10:58:46.103Z,540
2019-01-02T10:59:56.059Z,675
2019-01-02T11:01:06.009Z,640
2019-01-02T11:02:15.965Z,605
2019-01-02T11:03:25.922Z,505
2019-01-02T11:04:35.607Z,505
2019-01-02T11:05:45.301Z,505
2019-01-02T11:06:55.264Z,540
2019-01-02T11:08:05.211Z,575
2019-01-02T11:09:15.158Z,910
2019-01-02T11:10:24.597Z,620
2019-01-02T11:11:34.040Z,555
2019-01-02T11:12:44.430Z,535
2019-01-02T11:13:54.125Z,515
2019-01-02T11:15:03.810Z,510
2019-01-02T11:16:13.762Z,530
2019-01-02T11:17:24.536Z,565
2019-01-02T11:18:33.989Z,895
2019-01-02T11:19:43.939Z,1060
2019-01-02T11:20:53.886Z,805
2019-01-02T11:22:03.827Z,725
2019-01-02T11:23:13.767Z,1345
2019-01-02T11:24:23.465Z,1645
2019-01-02T11:25:33.401Z,1555
2019-01-02T11:26:43.345Z,1570
2019-01-02T11:27:53.302Z,1640
2019-01-02T11:29:02.995Z,1725
2019-01-02T11:30:12.952Z,1715
2019-01-02T11:31:22.645Z,1550
2019-01-02T11:32:32.592Z,755
2019-01-02T11:33:42.571Z,700
2019-01-02T11:34:52.522Z,415
2019-01-02T11:36:02.465Z,325
2019-01-02T11:37:11.897Z,285
2019-01-02T11:38:21.840Z,275
2019-01-02T11:39:31.795Z,285
2019-01-02T11:40:41.786Z,310
2019-01-02T11:41:51.477Z,330
2019-01-02T11:43:01.429Z,325
2019-01-02T11:44:11.128Z,300
2019-01-02T11:45:20.833Z,285
2019-01-02T11:46:30.836Z,305
2019-01-02T11:47:40.766Z,285
2019-01-02T11:48:50.720Z,275
2019-01-02T11:50:00.658Z,325
2019-01-02T11:51:11.388Z,380
2019-01-02T11:52:21.346Z,450
2019-01-02T11:53:31.045Z,415
2019-01-02T11:54:40.738Z,420
2019-01-02T11:55:50.682Z,465
2019-01-02T11:57:00.351Z,1425
2019-01-02T11:58:10.322Z,540
2019-01-02T11:59:20.021Z,935
2019-01-02T12:00:29.968Z,430
2019-01-02T12:01:39.424Z,1025
2019-01-02T12:02:49.365Z,1605
2019-01-02T12:03:59.300Z,1700
2019-01-02T12:05:09.250Z,1720
2019-01-02T12:06:19.190Z,1505
2019-01-02T12:07:29.135Z,765
2019-01-02T12:08:38.834Z,320
2019-01-02T12:09:48.777Z,320
2019-01-02T12:10:58.728Z,1055
2019-01-02T12:12:08.688Z,290
2019-01-02T12:13:18.641Z,285
2019-01-02T12:14:28.612Z,310
2019-01-02T12:15:38.544Z,1365
2019-01-02T12:16:48.480Z,325
2019-01-02T12:17:58.430Z,1545
2019-01-02T12:19:08.134Z,1485
2019-01-02T12:20:18.076Z,1480
2019-01-02T12:21:27.296Z,1560
2019-01-02T12:22:37.244Z,1590
2019-01-02T12:23:47.237Z,1535
2019-01-02T12:24:57.198Z,1535
2019-01-02T12:26:07.178Z,1530
2019-01-02T12:27:16.888Z,1185
2019-01-02T12:28:26.828Z,1505
2019-01-02T12:29:36.782Z,1470
2019-01-02T12:30:46.501Z,1460
2019-01-02T12:31:56.464Z,1480
2019-01-02T12:33:06.806Z,1540
2019-01-02T12:34:16.822Z,1510
2019-01-02T12:35:26.269Z,1180
2019-01-02T12:36:35.713Z,1485
2019-01-02T12:37:45.669Z,1455
2019-01-02T12:38:55.618Z,1490
2019-01-02T12:40:05.573Z,1490
2019-01-02T12:41:15.532Z,1520
2019-01-02T12:42:24.982Z,1540
2019-01-02T12:43:34.917Z,1495
2019-01-02T12:44:44.620Z,1380
2019-01-02T12:45:54.622Z,1465
2019-01-02T12:47:04.572Z,1515
2019-01-02T12:48:14.510Z,1600
2019-01-02T12:49:24.214Z,1600
2019-01-02T12:50:33.674Z,1585
2019-01-02T12:51:43.373Z,1575
2019-01-02T12:52:52.828Z,1620
2019-01-02T12:54:02.788Z,1600
2019-01-02T12:55:13.004Z,1590
2019-01-02T12:56:22.946Z,1585
2019-01-02T12:57:32.894Z,1570
2019-01-02T12:58:42.620Z,1385
2019-01-02T12:59:52.612Z,1590
2019-01-02T13:01:02.580Z,365
2019-01-02T13:02:12.546Z,540
2019-01-02T13:03:22.509Z,340
2019-01-02T13:04:32.214Z,305
2019-01-02T13:05:43.141Z,310
2019-01-02T13:06:52.856Z,570
2019-01-02T13:08:02.820Z,1390
2019-01-02T13:09:12.530Z,1015
2019-01-02T13:10:22.235Z,1405
2019-01-02T13:11:32.164Z,1440
2019-01-02T13:12:42.108Z,1405
2019-01-02T13:13:52.053Z,1275
2019-01-02T13:15:02.012Z,855
2019-01-02T13:16:11.716Z,1245
2019-01-02T13:17:21.417Z,1260
2019-01-02T13:18:31.117Z,1330
2019-01-02T13:19:41.072Z,325
2019-01-02T13:20:50.783Z,300
2019-01-02T13:22:00.722Z,265
2019-01-02T13:23:09.924Z,240
2019-01-02T13:24:19.634Z,220
2019-01-02T13:25:29.590Z,215
2019-01-02T13:26:39.536Z,195
2019-01-02T13:27:49.233Z,1220
2019-01-02T13:28:58.955Z,305
2019-01-02T13:30:08.890Z,200
2019-01-02T13:31:18.836Z,145
2019-01-02T13:32:28.270Z,145
2019-01-02T13:33:38.227Z,155
2019-01-02T13:34:48.198Z,165
2019-01-02T13:35:58.135Z,260
2019-01-02T13:37:07.348Z,195
2019-01-02T13:38:17.314Z,200
2019-01-02T13:39:27.273Z,230
2019-01-02T13:40:36.968Z,590
2019-01-02T13:41:46.682Z,355
2019-01-02T13:42:56.629Z,160
2019-01-02T13:44:06.333Z,155
2019-01-02T13:45:15.788Z,605
2019-01-02T13:46:25.728Z,380
2019-01-02T13:47:35.661Z,255
2019-01-02T13:48:45.617Z,345
2019-01-02T13:49:55.593Z,575
2019-01-02T13:51:06.429Z,425
2019-01-02T13:52:16.378Z,345
2019-01-02T13:53:26.332Z,365
2019-01-02T13:54:36.276Z,215
2019-01-02T13:55:46.222Z,180
2019-01-02T13:56:56.160Z,175
2019-01-02T13:58:05.614Z,160
2019-01-02T13:59:15.319Z,145
2019-01-02T14:00:25.297Z,115
2019-01-02T14:01:35.247Z,130
2019-01-02T14:02:45.210Z,245
2019-01-02T14:03:55.157Z,80
2019-01-02T14:05:04.901Z,65
2019-01-02T14:06:14.606Z,65
2019-01-02T14:07:24.556Z,60
2019-01-02T14:08:34.506Z,55
2019-01-02T14:09:44.222Z,45
2019-01-02T14:10:53.914Z,45
2019-01-02T14:12:03.346Z,45
2019-01-02T14:13:13.043Z,45
2019-01-02T14:14:22.986Z,45
2019-01-02T14:15:32.423Z,45
2019-01-02T14:16:42.395Z,45
2019-01-02T14:17:52.347Z,45
2019-01-02T14:19:02.290Z,40
2019-01-02T14:20:12.257Z,35
2019-01-02T14:21:22.202Z,30
2019-01-02T14:22:31.890Z,30
2019-01-02T14:23:41.584Z,35
2019-01-02T14:24:51.531Z,40
2019-01-02T14:26:01.476Z,45
2019-01-02T14:27:11.406Z,45
2019-01-02T14:28:21.360Z,40
2019-01-02T14:29:31.322Z,40
2019-01-02T14:30:41.029Z,35
2019-01-02T14:31:50.732Z,30
2019-01-02T14:33:00.166Z,25
2019-01-02T14:34:10.108Z,20
2019-01-02T14:35:24.909Z,15
2019-01-02T14:36:34.851Z,15
2019-01-02T14:37:44.803Z,10
2019-01-02T14:38:54.507Z,10
2019-01-02T14:40:04.448Z,10
2019-01-02T14:41:14.145Z,5
2019-01-02T14:42:24.100Z,5
2019-01-02T14:43:34.071Z,5
2019-01-02T14:44:44.027Z,5
2019-01-02T14:45:53.970Z,5
2019-01-02T14:47:03.914Z,5
2019-01-02T14:48:13.878Z,10
2019-01-02T14:49:23.650Z,10
2019-01-02T14:50:33.601Z,10
2019-01-02T14:51:43.311Z,10
2019-01-02T14:52:54.352Z,15
2019-01-02T14:54:04.324Z,15
2019-01-02T14:55:14.282Z,15
2019-01-02T14:56:23.988Z,15
2019-01-02T14:57:33.959Z,15
2019-01-02T14:58:43.913Z,15
2019-01-02T14:59:53.861Z,15
2019-01-02T15:01:03.581Z,15
2019-01-02T15:02:13.267Z,15
2019-01-02T15:03:22.971Z,15
2019-01-02T15:04:32.920Z,15
2019-01-02T15:05:43.943Z,15
2019-01-02T15:06:53.932Z,10
2019-01-02T15:08:03.879Z,10
2019-01-02T15:09:13.810Z,10
2019-01-02T15:10:23.786Z,10
2019-01-02T15:11:33.755Z,10
2019-01-02T15:12:43.709Z,10
2019-01-02T15:13:53.661Z,5
2019-01-02T15:15:03.616Z,5
2019-01-02T15:16:13.804Z,5
2019-01-02T15:17:23.780Z,5
2019-01-02T15:18:33.481Z,0
2019-01-02T15:19:43.192Z,0
2019-01-02T15:20:53.145Z,0
2019-01-02T15:22:07.308Z,0
2019-01-02T15:23:17.007Z,0
2019-01-02T15:24:26.704Z,0
2019-01-02T15:25:36.647Z,0
2019-01-02T15:26:46.584Z,0
2019-01-02T15:27:56.278Z,0
2019-01-02T15:29:05.990Z,0
2019-01-02T15:30:15.944Z,0
2019-01-02T15:31:25.901Z,0
2019-01-02T15:32:35.609Z,0
2019-01-02T15:33:45.569Z,0
2019-01-02T15:34:55.042Z,0
2019-01-02T15:36:05.002Z,0
2019-01-02T15:37:14.946Z,0
2019-01-02T15:38:24.927Z,0
2019-01-02T15:39:34.363Z,0
2019-01-02T15:40:43.802Z,0
2019-01-02T15:41:52.979Z,0
2019-01-02T15:43:02.903Z,0
2019-01-02T15:44:12.595Z,0
2019-01-02T15:45:22.287Z,0
2019-01-02T15:46:32.234Z,0
2019-01-02T15:47:42.179Z,0
2019-01-02T15:48:51.887Z,0
2019-01-02T15:50:01.852Z,0
2019-01-02T15:51:11.796Z,0
2019-01-02T15:52:21.242Z,0
2019-01-02T15:53:31.187Z,0
2019-01-02T15:54:41.108Z,0
2019-01-02T15:55:50.801Z,0
2019-01-02T15:57:00.744Z,0
2019-01-02T15:58:10.435Z,0
2019-01-02T15:59:20.142Z,0
2019-01-02T16:00:30.696Z,0
2019-01-02T16:01:40.391Z,0
2019-01-02T16:02:50.341Z,0
2019-01-02T16:04:00.037Z,0
2019-01-02T16:05:09.719Z,0
2019-01-02T16:06:19.454Z,0
2019-01-02T16:07:29.532Z,0
2019-01-02T16:08:39.551Z,0
2019-01-02T16:09:48.998Z,0
2019-01-02T16:10:58.942Z,0
2019-01-02T16:12:08.623Z,0
2019-01-02T16:13:18.568Z,0
2019-01-02T16:14:28.245Z,0
2019-01-02T16:15:37.946Z,0
2019-01-02T16:16:47.876Z,0
2019-01-02T16:17:57.321Z,0
2019-01-02T16:19:07.002Z,0
2019-01-02T16:20:16.716Z,0
2019-01-02T16:21:26.663Z,0
2019-01-02T16:22:36.363Z,0
2019-01-02T16:23:46.318Z,0
2019-01-02T16:24:56.023Z,0
2019-01-02T16:26:05.989Z,0
2019-01-02T16:27:15.931Z,0
2019-01-02T16:28:25.876Z,0
2019-01-02T16:29:35.822Z,0
2019-01-02T16:30:45.528Z,0
2019-01-02T16:31:55.487Z,0
2019-01-02T16:33:05.175Z,0
2019-01-02T16:34:15.147Z,0
2019-01-02T16:35:25.079Z,0
2019-01-02T16:36:34.770Z,0
2019-01-02T16:37:44.475Z,0
2019-01-02T16:38:54.423Z,0
2019-01-02T16:40:04.442Z,0
2019-01-02T16:41:14.389Z,0
2019-01-02T16:42:24.327Z,0
2019-01-02T16:43:34.289Z,0
2019-01-02T16:44:44.291Z,0